createdAt,value
2019-04-24T00:04:53.957Z,18.30
2019-04-24T00:07:06.515Z,18.20
2019-04-24T00:15:11.180Z,18.30
2019-04-24T00:17:24.719Z,18.40
2019-04-24T00:20:08.242Z,18.50
2019-04-24T00:22:30.431Z,18.50
2019-04-24T00:27:23.581Z,18.50
2019-04-24T00:29:58.185Z,18.40
2019-04-24T00:32:31.271Z,18.40
2019-04-24T00:35:01.627Z,18.40
2019-04-24T00:37:32.137Z,18.50
2019-04-24T00:39:49.152Z,18.40
2019-04-24T00:42:21.764Z,18.40
2019-04-24T00:47:31.598Z,18.40
2019-04-24T00:49:57.760Z,18.30
2019-04-24T00:52:33.563Z,18.40
2019-04-24T00:54:58.637Z,18.40
2019-04-24T00:57:33.752Z,18.50
2019-04-24T00:59:56.455Z,18.50
2019-04-24T01:02:25.167Z,18.40
2019-04-24T01:05:31.659Z,18.50
2019-04-24T01:08:06.652Z,18.40
2019-04-24T01:10:31.891Z,18.50
2019-04-24T01:13:14.784Z,18.50
2019-04-24T01:18:14.643Z,18.50
2019-04-24T01:20:42.094Z,18.50
2019-04-24T01:23:15.754Z,18.60
2019-04-24T01:25:46.036Z,18.60
2019-04-24T01:31:09.068Z,18.60
2019-04-24T01:33:31.504Z,18.60
2019-04-24T01:36:11.457Z,18.60
2019-04-24T01:38:37.855Z,18.60
2019-04-24T01:41:14.860Z,18.60
2019-04-24T01:43:42.215Z,18.60
2019-04-24T01:46:10.361Z,18.60
2019-04-24T01:48:37.691Z,18.60
2019-04-24T01:51:16.869Z,18.60
2019-04-24T01:53:37.282Z,18.60
2019-04-24T02:01:16.601Z,18.50
2019-04-24T02:06:23.858Z,18.40
2019-04-24T02:08:57.758Z,18.30
2019-04-24T02:11:39.140Z,18.30
2019-04-24T02:13:58.973Z,18.20
2019-04-24T02:18:51.902Z,18.10
2019-04-24T02:21:30.342Z,18.00
2019-04-24T02:23:59.111Z,18.00
2019-04-24T02:26:30.630Z,17.90
2019-04-24T02:29:06.621Z,17.90
2019-04-24T02:34:10.481Z,17.80
2019-04-24T02:47:23.323Z,17.50
2019-04-24T02:52:13.647Z,17.50
2019-04-24T02:59:51.627Z,17.50
2019-04-24T03:02:34.404Z,17.50
2019-04-24T03:04:40.053Z,17.50
2019-04-24T03:12:55.330Z,17.50
2019-04-24T03:15:03.971Z,17.40
2019-04-24T03:19:59.785Z,17.50
2019-04-24T03:22:35.911Z,17.50
2019-04-24T03:27:55.480Z,17.40
2019-04-24T03:38:09.443Z,17.30
2019-04-24T03:45:31.242Z,17.40
2019-04-24T03:51:07.439Z,17.40
2019-04-24T04:05:31.226Z,17.40
2019-04-24T04:08:22.906Z,17.40
2019-04-24T04:10:49.936Z,17.40
2019-04-24T04:13:31.915Z,17.30
2019-04-24T04:15:33.216Z,17.40
2019-04-24T04:23:54.253Z,17.30
2019-04-24T04:28:39.922Z,17.30
2019-04-24T04:44:26.593Z,17.30
2019-04-24T04:49:47.774Z,17.30
2019-04-24T04:52:38.976Z,17.30
2019-04-24T04:55:36.820Z,17.30
2019-04-24T04:57:30.799Z,17.30
2019-04-24T05:04:52.159Z,17.40
2019-04-24T05:17:23.460Z,17.50
2019-04-24T05:19:45.031Z,17.50
2019-04-24T05:29:55.238Z,17.80
2019-04-24T05:32:49.259Z,17.80
2019-04-24T05:35:12.721Z,17.80
2019-04-24T05:42:59.865Z,17.90
2019-04-24T05:45:14.915Z,18.00
2019-04-24T05:47:54.514Z,18.10
2019-04-24T05:52:57.860Z,18.20
2019-04-24T05:55:45.072Z,18.30
2019-04-24T06:00:43.250Z,18.50
2019-04-24T06:05:48.384Z,18.60
2019-04-24T06:08:20.664Z,18.60
2019-04-24T06:13:24.435Z,18.70
2019-04-24T06:18:37.362Z,18.70
2019-04-24T06:21:11.407Z,18.80
2019-04-24T06:34:02.335Z,19.20
2019-04-24T06:45:05.931Z,19.60
2019-04-24T06:47:41.687Z,19.70
2019-04-24T06:49:27.990Z,19.70
2019-04-24T06:57:22.738Z,20.00
2019-04-24T06:59:56.976Z,20.10
2019-04-24T07:05:13.632Z,20.10
2019-04-24T07:13:40.086Z,20.30
2019-04-24T07:18:26.327Z,20.50
2019-04-24T07:23:40.903Z,20.50
2019-04-24T07:26:06.602Z,20.50
2019-04-24T07:28:40.488Z,20.50
2019-04-24T07:31:22.744Z,20.30
2019-04-24T07:36:35.541Z,20.30
2019-04-24T07:38:52.535Z,20.20
2019-04-24T07:41:38.649Z,20.10
2019-04-24T07:51:38.706Z,20.00
2019-04-24T07:56:59.004Z,19.90
2019-04-24T07:59:53.105Z,20.00
2019-04-24T08:02:04.540Z,20.00
2019-04-24T08:07:00.686Z,20.20
2019-04-24T08:12:26.313Z,20.70
2019-04-24T08:30:17.914Z,22.10
2019-04-24T08:34:52.108Z,22.20
2019-04-24T08:37:37.450Z,22.50
2019-04-24T08:40:20.967Z,22.60
2019-04-24T08:43:06.588Z,22.60
2019-04-24T08:45:44.967Z,22.70
2019-04-24T08:48:22.612Z,22.80
2019-04-24T08:51:13.102Z,23.00
2019-04-24T08:53:11.887Z,23.20
2019-04-24T08:58:22.088Z,23.30
2019-04-24T09:01:02.736Z,23.10
2019-04-24T09:08:42.174Z,23.20
2019-04-24T09:16:37.730Z,23.40
2019-04-24T09:19:04.382Z,23.50
2019-04-24T09:21:39.624Z,23.60
2019-04-24T09:29:18.327Z,23.80
2019-04-24T09:32:13.565Z,24.10
2019-04-24T09:34:25.884Z,24.00
2019-04-24T09:37:02.648Z,23.90
2019-04-24T09:44:35.593Z,24.40
2019-04-24T09:46:58.661Z,24.50
2019-04-24T09:49:22.801Z,24.70
2019-04-24T09:52:02.101Z,24.90
2019-04-24T09:57:27.606Z,25.00
2019-04-24T09:59:41.053Z,24.90
2019-04-24T10:02:29.795Z,25.10
2019-04-24T10:04:57.559Z,25.10
2019-04-24T10:14:56.833Z,24.90
2019-04-24T10:17:37.425Z,24.80
2019-04-24T10:20:22.420Z,24.80
2019-04-24T10:23:02.418Z,24.90
2019-04-24T10:25:29.895Z,25.00
2019-04-24T10:28:31.265Z,25.30
2019-04-24T10:31:03.666Z,25.70
2019-04-24T10:36:06.212Z,25.50
2019-04-24T10:39:06.832Z,25.20
2019-04-24T10:41:15.891Z,25.20
2019-04-24T10:43:52.344Z,25.40
2019-04-24T10:46:29.429Z,25.50
2019-04-24T10:49:19.091Z,25.50
2019-04-24T10:54:12.219Z,25.90
2019-04-24T10:56:43.749Z,26.10
2019-04-24T10:59:17.233Z,26.20
2019-04-24T11:02:15.149Z,26.00
2019-04-24T11:07:07.183Z,26.00
2019-04-24T11:10:02.517Z,26.10
2019-04-24T11:12:16.421Z,26.10
2019-04-24T11:14:45.225Z,26.20
2019-04-24T11:17:24.019Z,26.40
2019-04-24T11:19:55.269Z,26.70
2019-04-24T11:22:25.484Z,27.30
2019-04-24T11:25:03.702Z,27.70
2019-04-24T11:27:38.668Z,27.80
2019-04-24T11:30:07.514Z,27.70
2019-04-24T11:32:45.309Z,27.90
2019-04-24T11:37:55.967Z,29.20
2019-04-24T11:45:42.347Z,31.10
2019-04-24T11:48:37.152Z,31.90
2019-04-24T11:53:23.619Z,33.10
2019-04-24T11:56:04.406Z,33.70
2019-04-24T12:00:58.119Z,34.40
2019-04-24T12:03:48.305Z,34.80
2019-04-24T12:06:15.877Z,35.10
2019-04-24T12:08:54.771Z,35.60
2019-04-24T12:13:59.695Z,35.60
2019-04-24T12:18:57.800Z,36.20
2019-04-24T12:21:42.169Z,36.20
2019-04-24T12:24:12.512Z,36.40
2019-04-24T12:26:30.784Z,36.90
2019-04-24T12:32:03.274Z,37.10
2019-04-24T12:34:28.962Z,36.80
2019-04-24T12:39:25.604Z,37.50
2019-04-24T12:42:14.423Z,37.80
2019-04-24T12:44:35.881Z,38.10
2019-04-24T12:49:50.326Z,38.80
2019-04-24T12:52:06.378Z,39.10
2019-04-24T12:54:51.193Z,39.10
2019-04-24T12:57:18.448Z,39.10
2019-04-24T12:59:46.268Z,39.10
2019-04-24T13:02:33.184Z,39.00
2019-04-24T13:05:00.601Z,38.70
2019-04-24T13:07:43.546Z,39.40
2019-04-24T13:10:12.258Z,39.40
2019-04-24T13:18:11.737Z,41.10
2019-04-24T13:20:17.841Z,41.10
2019-04-24T13:22:49.297Z,41.10
2019-04-24T13:25:53.477Z,40.90
2019-04-24T13:31:12.139Z,40.50
2019-04-24T13:41:00.016Z,40.80
2019-04-24T13:51:10.119Z,40.40
2019-04-24T13:53:59.708Z,40.00
2019-04-24T13:56:03.400Z,40.00
2019-04-24T13:58:44.548Z,39.90
2019-04-24T14:01:35.436Z,39.20
2019-04-24T14:04:06.854Z,38.80
2019-04-24T14:06:35.338Z,38.40
2019-04-24T14:13:59.632Z,39.20
2019-04-24T14:19:03.804Z,40.40
2019-04-24T14:21:24.978Z,40.60
2019-04-24T14:24:07.443Z,40.50
2019-04-24T14:26:36.418Z,40.80
2019-04-24T14:31:52.693Z,41.00
2019-04-24T14:34:09.169Z,41.20
2019-04-24T14:36:43.504Z,41.60
2019-04-24T14:39:18.417Z,41.50
2019-04-24T14:41:40.663Z,40.90
2019-04-24T14:44:24.978Z,40.00
2019-04-24T14:46:49.833Z,39.20
2019-04-24T14:49:21.714Z,39.00
2019-04-24T14:56:49.718Z,39.50
2019-04-24T15:04:15.416Z,40.40
2019-04-24T15:06:51.446Z,40.50
2019-04-24T15:09:13.466Z,40.50
2019-04-24T15:14:23.047Z,41.30
2019-04-24T15:19:29.196Z,42.30
2019-04-24T15:21:56.818Z,42.60
2019-04-24T15:24:42.801Z,42.70
2019-04-24T15:26:49.509Z,42.90
2019-04-24T15:29:20.595Z,42.50
2019-04-24T15:31:48.169Z,41.70
2019-04-24T15:37:00.263Z,41.00
2019-04-24T15:39:27.153Z,41.10
2019-04-24T15:44:14.487Z,41.30
2019-04-24T15:46:56.132Z,41.70
2019-04-24T15:49:21.404Z,42.00
2019-04-24T15:51:33.141Z,42.10
2019-04-24T15:53:51.448Z,42.70
2019-04-24T15:56:19.852Z,42.20
2019-04-24T15:58:58.172Z,42.10
2019-04-24T16:01:56.991Z,42.80
2019-04-24T16:04:17.800Z,42.70
2019-04-24T16:06:20.786Z,42.80
2019-04-24T16:08:51.129Z,42.60
2019-04-24T16:11:19.627Z,42.00
2019-04-24T16:13:56.318Z,41.20
2019-04-24T16:16:50.447Z,41.00
2019-04-24T16:19:23.807Z,40.60
2019-04-24T16:21:47.488Z,40.40
2019-04-24T16:24:35.236Z,40.20
2019-04-24T16:26:45.443Z,40.30
2019-04-24T16:37:00.204Z,39.50
2019-04-24T16:39:47.806Z,38.20
2019-04-24T16:42:08.890Z,37.70
2019-04-24T16:44:30.843Z,37.80
2019-04-24T16:47:13.127Z,38.10
2019-04-24T16:49:37.509Z,38.30
2019-04-24T16:56:54.354Z,37.70
2019-04-24T16:59:19.972Z,37.60
2019-04-24T17:02:02.141Z,37.00
2019-04-24T17:07:03.057Z,35.20
2019-04-24T17:09:38.400Z,34.00
2019-04-24T17:12:01.996Z,33.40
2019-04-24T17:22:11.827Z,31.60
2019-04-24T17:24:47.651Z,31.40
2019-04-24T17:29:44.285Z,30.40
2019-04-24T17:34:53.398Z,30.00
2019-04-24T17:36:43.935Z,29.90
2019-04-24T17:39:26.323Z,29.90
2019-04-24T17:41:59.557Z,29.70
2019-04-24T17:45:06.533Z,29.60
2019-04-24T17:47:29.981Z,29.50
2019-04-24T17:52:37.934Z,29.10
2019-04-24T17:54:49.300Z,28.90
2019-04-24T17:57:26.850Z,28.80
2019-04-24T17:59:26.351Z,28.80
2019-04-24T18:01:55.605Z,28.80
2019-04-24T18:04:24.445Z,28.80
2019-04-24T18:06:53.131Z,28.60
2019-04-24T18:09:22.341Z,28.60
2019-04-24T18:11:52.419Z,28.60
2019-04-24T18:14:20.946Z,28.40
2019-04-24T18:16:51.372Z,28.30
2019-04-24T18:19:19.822Z,28.30
2019-04-24T18:21:48.260Z,28.20
2019-04-24T18:24:34.910Z,28.20
2019-04-24T18:27:07.932Z,28.10
2019-04-24T18:29:36.365Z,28.10
2019-04-24T18:32:05.448Z,28.10
2019-04-24T18:34:34.213Z,28.00
2019-04-24T18:37:03.455Z,27.90
2019-04-24T18:39:32.669Z,27.80
2019-04-24T18:42:01.842Z,27.80
2019-04-24T18:44:30.366Z,27.60
2019-04-24T18:46:59.178Z,25.30
2019-04-24T18:49:27.627Z,23.50
2019-04-24T18:51:56.354Z,22.70
2019-04-24T18:54:24.792Z,21.70
2019-04-24T18:56:53.537Z,20.80
2019-04-24T18:59:21.977Z,20.00
2019-04-24T19:01:52.457Z,19.60
2019-04-24T19:04:21.362Z,19.10
2019-04-24T19:06:50.185Z,18.50
2019-04-24T19:09:21.762Z,18.40
2019-04-24T19:11:50.302Z,18.10
2019-04-24T19:14:18.712Z,17.70
2019-04-24T19:16:47.437Z,17.60
2019-04-24T19:19:15.835Z,17.70
2019-04-24T19:21:44.266Z,17.90
2019-04-24T19:24:12.697Z,17.60
2019-04-24T19:26:41.826Z,17.40
2019-04-24T19:29:11.020Z,17.10
2019-04-24T19:31:40.138Z,16.70
2019-04-24T19:34:09.330Z,16.60
2019-04-24T19:36:38.133Z,16.70
2019-04-24T19:42:47.630Z,16.40
2019-04-24T19:45:16.035Z,16.20
2019-04-24T19:47:44.442Z,16.10
2019-04-24T19:50:14.380Z,16.00
2019-04-24T19:52:43.008Z,15.90
2019-04-24T19:55:15.485Z,15.90
2019-04-24T19:57:42.467Z,15.80
2019-04-24T20:00:13.424Z,15.90
2019-04-24T20:02:42.337Z,16.00
2019-04-24T20:05:14.551Z,15.90
2019-04-24T20:07:41.678Z,15.60
2019-04-24T20:10:11.728Z,15.40
2019-04-24T20:12:41.539Z,15.40
2019-04-24T20:15:11.875Z,15.40
2019-04-24T20:17:40.300Z,15.30
2019-04-24T20:20:08.716Z,15.00
2019-04-24T20:22:37.453Z,14.80
2019-04-24T20:25:07.325Z,14.80
2019-04-24T20:27:35.755Z,14.60
2019-04-24T20:30:06.312Z,14.40
2019-04-24T20:32:34.720Z,14.30
2019-04-24T20:35:03.506Z,14.00
2019-04-24T20:37:32.065Z,13.70
2019-04-24T20:40:01.872Z,13.50
2019-04-24T20:42:30.470Z,13.40
2019-04-24T20:44:58.894Z,13.40
2019-04-24T20:47:27.600Z,13.30
2019-04-24T20:49:56.298Z,13.40
2019-04-24T20:52:24.831Z,13.10
2019-04-24T20:54:53.276Z,13.00
2019-04-24T20:57:22.295Z,13.10
2019-04-24T20:59:51.831Z,13.00
2019-04-24T21:02:21.035Z,13.00
2019-04-24T21:04:49.467Z,13.00
2019-04-24T21:07:26.066Z,13.00
2019-04-24T21:10:08.481Z,13.10
2019-04-24T21:12:37.237Z,13.00
2019-04-24T21:15:10.935Z,13.20
2019-04-24T21:17:40.057Z,13.20
2019-04-24T21:20:08.734Z,13.30
2019-04-24T21:22:37.777Z,13.30
2019-04-24T21:25:06.277Z,13.50
2019-04-24T21:27:34.676Z,13.60
2019-04-24T21:30:03.969Z,13.80
2019-04-24T21:32:33.188Z,13.90
2019-04-24T21:35:01.986Z,14.00
2019-04-24T21:37:30.378Z,14.10
2019-04-24T21:39:58.955Z,14.20
2019-04-24T21:42:28.069Z,14.20
2019-04-24T21:44:56.871Z,14.30
2019-04-24T21:47:26.095Z,14.40
2019-04-24T21:49:54.563Z,14.40
2019-04-24T21:52:23.277Z,14.30
2019-04-24T21:54:51.691Z,14.40
2019-04-24T21:57:21.853Z,14.50
2019-04-24T21:59:51.339Z,14.40
2019-04-24T22:02:25.166Z,14.50
2019-04-24T22:05:04.590Z,14.50
2019-04-24T22:07:36.870Z,14.50
2019-04-24T22:10:06.486Z,14.70
2019-04-24T22:12:35.650Z,14.70
2019-04-24T22:15:06.575Z,14.80
2019-04-24T22:17:35.454Z,14.70
2019-04-24T22:20:08.137Z,14.60
2019-04-24T22:22:38.192Z,14.40
2019-04-24T22:25:21.125Z,14.40
2019-04-24T22:27:49.624Z,14.30
2019-04-24T22:30:26.808Z,14.10
2019-04-24T22:32:55.589Z,14.10
2019-04-24T22:35:28.627Z,14.00
2019-04-24T22:37:57.135Z,13.70
2019-04-24T22:40:27.987Z,13.80
2019-04-24T22:42:56.580Z,13.80
2019-04-24T22:45:25.161Z,13.90
2019-04-24T22:47:53.543Z,13.70
2019-04-24T22:50:21.956Z,13.80
2019-04-24T22:52:51.699Z,13.80
2019-04-24T22:55:22.440Z,13.80
2019-04-24T22:57:51.172Z,13.80
2019-04-24T23:00:22.201Z,13.70
2019-04-24T23:02:52.096Z,13.70
2019-04-24T23:05:20.636Z,13.80
2019-04-24T23:07:49.573Z,13.80
2019-04-24T23:10:18.008Z,13.80
2019-04-24T23:12:47.085Z,13.90
2019-04-24T23:15:16.741Z,13.80
2019-04-24T23:17:45.487Z,13.90
2019-04-24T23:20:14.432Z,14.00
2019-04-24T23:22:44.757Z,14.00
2019-04-24T23:25:18.444Z,14.10
2019-04-24T23:27:51.505Z,14.10
2019-04-24T23:30:24.604Z,14.20
2019-04-24T23:32:57.632Z,14.30
2019-04-24T23:35:26.345Z,14.20
2019-04-24T23:37:54.763Z,14.30
2019-04-24T23:40:23.164Z,14.40
2019-04-24T23:42:51.593Z,14.50
2019-04-24T23:45:20.086Z,14.50
2019-04-24T23:47:48.525Z,14.60
2019-04-24T23:50:17.218Z,14.70
2019-04-24T23:52:46.426Z,14.80
2019-04-24T23:55:15.037Z,14.80
2019-04-24T23:57:43.926Z,14.90
